.
WxDataArchive / Data Records for 2007-01-09
2007-01-08 January 2007 2007-01-10

Data Records for Tuesday, 09 January 2007

Time	Temp	Chill	HIndex	Humid	Dewpt	 Wind 	HiWind	WindDir	Rain 	Barom 
-----	----	-----	------	-----	-----	------	------	-------	-----	----- 
00:00	35.9	35.9	35.9	64	24.9	3	10	270	0.00	29.773 
00:05	35.8	35.8	35.8	65	25.2	2	7	248	0.00	29.773 
00:10	35.6	35.6	35.6	65	25.0	2	7	248	0.00	29.773 
00:15	35.6	35.6	35.6	65	25.0	3	9	270	0.00	29.766 
00:20	35.6	35.6	35.6	66	25.4	2	5	248	0.00	29.766 
00:25	35.5	35.5	35.5	66	25.3	2	6	248	0.00	29.766 
00:30	35.3	35.3	35.3	67	25.5	2	9	248	0.00	29.760 
00:35	35.3	35.3	35.3	63	24.0	3	9	248	0.00	29.760 
00:40	35.2	35.2	35.2	67	25.4	2	6	248	0.00	29.760 
00:45	35.2	35.2	35.2	68	25.7	2	5	248	0.00	29.757 
00:50	35.0	35.0	35.0	68	25.5	2	6	270	0.00	29.757 
00:55	35.0	35.0	35.0	69	25.9	2	10	270	0.00	29.757 
01:00	34.9	34.9	34.9	69	25.8	2	5	248	0.00	29.755 
01:05	34.9	34.9	34.9	69	25.8	2	5	248	0.00	29.755 
01:10	34.9	34.9	34.9	69	25.8	2	6	248	0.00	29.755 
01:15	34.9	34.9	34.9	69	25.8	2	6	270	0.00	29.756 
01:20	34.7	34.7	34.7	70	25.9	1	7	248	0.00	29.756 
01:25	34.7	34.7	34.7	70	25.9	2	5	248	0.00	29.756 
01:30	34.6	34.6	34.6	71	26.2	1	5	248	0.00	29.757 
01:35	34.4	34.4	34.4	71	26.0	1	5	248	0.00	29.757 
01:40	34.4	34.4	34.4	71	26.0	2	5	248	0.00	29.757 
01:45	34.4	34.4	34.4	72	26.3	2	7	248	0.00	29.758 
01:50	34.3	34.3	34.3	72	26.2	2	5	248	0.00	29.758 
01:55	34.1	34.1	34.1	73	26.4	2	7	248	0.00	29.758 
02:00	34.0	34.0	34.0	73	26.3	2	5	248	0.00	29.756 
02:05	33.8	33.8	33.8	73	26.1	1	3	248	0.00	29.756 
02:10	33.7	33.7	33.7	74	26.3	2	3	248	0.00	29.756 
02:15	33.5	33.5	33.5	74	26.1	1	3	248	0.00	29.756 
02:20	33.5	33.5	33.5	75	26.4	2	4	248	0.00	29.756 
02:25	33.4	33.4	33.4	75	26.3	1	5	248	0.00	29.756 
02:30	33.4	33.4	33.4	76	26.7	1	5	248	0.00	29.756 
02:35	33.2	33.2	33.2	76	26.5	1	3	248	0.00	29.756 
02:40	33.1	33.1	33.1	76	26.4	1	5	248	0.00	29.756 
02:45	33.1	33.1	33.1	77	26.7	1	4	248	0.00	29.758 
02:50	33.1	33.1	33.1	77	26.7	1	3	248	0.00	29.758 
02:55	33.1	33.1	33.1	77	26.7	1	4	248	0.00	29.758 
03:00	33.1	33.1	33.1	77	26.7	1	5	248	0.00	29.762 
03:05	32.9	32.9	32.9	78	26.8	1	5	248	0.00	29.762 
03:10	32.8	32.8	32.8	78	26.7	1	5	248	0.00	29.762 
03:15	32.7	32.7	32.7	78	26.6	2	4	248	0.00	29.764 
03:20	32.5	32.5	32.5	78	26.4	1	3	270	0.00	29.764 
03:25	32.4	32.4	32.4	79	26.6	1	4	248	0.00	29.764 
03:30	32.2	32.2	32.2	79	26.4	1	3	248	0.00	29.769 
03:35	32.1	32.1	32.1	80	26.6	1	2	248	0.00	29.769 
03:40	31.9	31.9	31.9	80	26.4	1	2	225	0.00	29.769 
03:45	31.8	31.8	31.8	81	26.6	1	4	248	0.00	29.771 
03:50	31.8	31.8	31.8	81	26.6	1	3	248	0.00	29.771 
03:55	31.6	31.6	31.6	81	26.5	0	3	248	0.00	29.771 
04:00	31.6	31.6	31.6	81	26.5	1	4	248	0.00	29.770 
04:05	31.5	31.5	31.5	81	26.4	1	4	270	0.00	29.770 
04:10	31.5	31.5	31.5	81	26.4	1	3	248	0.00	29.770 
04:15	31.3	31.3	31.3	81	26.2	1	3	248	0.00	29.772 
04:20	31.3	31.3	31.3	82	26.5	1	6	248	0.00	29.772 
04:25	31.3	31.3	31.3	82	26.5	1	2	270	0.00	29.772 
04:30	31.3	31.3	31.3	82	26.5	1	3	270	0.00	29.772 
04:35	31.2	31.2	31.2	81	26.1	1	3	248	0.00	29.772 
04:40	31.0	31.0	31.0	82	26.2	1	3	248	0.00	29.772 
04:45	30.9	30.9	30.9	82	26.1	1	2	248	0.00	29.773 
04:50	30.9	30.9	30.9	82	26.1	0	2	248	0.00	29.773 
04:55	30.7	30.7	30.7	82	25.9	0	2	248	0.00	29.773 
05:00	30.7	30.7	30.7	82	25.9	1	2	248	0.00	29.774 
05:05	30.6	30.6	30.6	83	26.1	0	2	248	0.00	29.774 
05:10	30.4	30.4	30.4	83	25.9	1	4	248	0.00	29.774 
05:15	30.4	30.4	30.4	83	25.9	1	2	248	0.00	29.777 
05:20	30.3	30.3	30.3	83	25.8	1	3	248	0.00	29.777 
05:25	30.4	30.4	30.4	83	25.9	1	5	248	0.00	29.777 
05:30	30.3	30.3	30.3	83	25.8	1	2	248	0.00	29.783 
05:35	30.3	30.3	30.3	83	25.8	1	4	248	0.00	29.783 
05:40	30.3	30.3	30.3	83	25.8	1	4	225	0.00	29.783 
05:45	30.1	30.1	30.1	84	25.9	0	2	248	0.00	29.787 
05:50	30.1	30.1	30.1	84	25.9	1	3	248	0.00	29.787 
05:55	30.1	30.1	30.1	84	25.9	1	5	248	0.00	29.787 
06:00	30.0	30.0	30.0	84	25.8	1	4	248	0.00	29.791 
06:05	30.0	30.0	30.0	84	25.8	1	2	270	0.00	29.791 
06:10	30.0	30.0	30.0	84	25.8	1	3	248	0.00	29.791 
06:15	29.8	29.8	29.8	84	25.6	1	3	248	0.00	29.804 
06:20	29.8	29.8	29.8	85	25.9	1	4	270	0.00	29.804 
06:25	29.8	29.8	29.8	85	25.9	1	2	248	0.00	29.804 
06:30	29.8	29.8	29.8	85	25.9	1	4	248	0.00	29.811 
06:35	29.7	29.7	29.7	85	25.8	1	3	248	0.00	29.811 
06:40	29.7	29.7	29.7	85	25.8	1	2	248	0.00	29.811 
06:45	29.5	29.5	29.5	86	25.8	1	3	248	0.00	29.820 
06:50	29.5	29.5	29.5	86	25.8	1	2	248	0.00	29.820 
06:55	29.5	29.5	29.5	86	25.8	1	3	248	0.00	29.820 
07:00	29.5	29.5	29.5	86	25.8	2	5	248	0.00	29.828 
07:05	29.5	29.5	29.5	86	25.8	1	2	248	0.00	29.828 
07:10	29.5	29.5	29.5	86	25.8	1	3	248	0.00	29.828 
07:15	29.4	29.4	29.4	85	25.5	0	2	248	0.00	29.838 
07:20	29.4	29.4	29.4	86	25.7	1	3	270	0.00	29.838 
07:25	29.4	29.4	29.4	86	25.7	1	3	248	0.00	29.838 
07:30	29.4	29.4	29.4	86	25.7	1	4	248	0.00	29.842 
07:35	29.4	29.4	29.4	86	25.7	1	4	248	0.00	29.842 
07:40	29.4	29.4	29.4	86	25.7	1	4	248	0.00	29.842 
07:45	29.4	29.4	29.4	85	25.5	1	4	248	0.00	29.851 
07:50	29.3	29.3	29.3	85	25.4	1	3	248	0.00	29.851 
07:55	29.3	29.3	29.3	85	25.4	1	3	248	0.00	29.851 
08:00	29.3	29.3	29.3	85	25.4	1	5	248	0.00	29.856 
08:05	29.3	29.3	29.3	85	25.4	1	2	270	0.00	29.856 
08:10	29.3	29.3	29.3	85	25.4	1	4	248	0.00	29.856 
08:15	29.4	29.4	29.4	85	25.5	1	4	248	0.00	29.860 
08:20	29.4	29.4	29.4	84	25.2	1	3	248	0.00	29.860 
08:25	29.4	29.4	29.4	84	25.2	1	4	270	0.00	29.860 
08:30	29.4	29.4	29.4	84	25.2	1	4	248	0.00	29.868 
08:35	29.5	29.5	29.5	84	25.3	1	4	270	0.00	29.868 
08:40	29.7	29.7	29.7	83	25.2	2	5	270	0.00	29.868 
08:45	29.8	29.8	29.8	83	25.3	2	4	270	0.00	29.873 
08:50	30.1	30.1	30.1	82	25.3	1	5	270	0.00	29.873 
08:55	30.1	30.1	30.1	81	25.0	2	3	248	0.00	29.873 
09:00	30.3	30.3	30.3	81	25.2	1	5	270	0.00	29.881 
09:05	30.4	30.4	30.4	81	25.3	1	3	270	0.00	29.881 
09:10	30.4	30.4	30.4	80	25.0	2	4	270	0.00	29.881 
09:15	30.4	30.4	30.4	79	24.7	2	6	270	0.00	29.887 
09:20	30.7	30.7	30.7	79	25.0	2	4	270	0.00	29.887 
09:25	31.0	31.0	31.0	78	25.0	2	4	270	0.00	29.887 
09:30	31.3	31.3	31.3	77	24.9	2	3	270	0.00	29.887 
09:35	31.5	31.5	31.5	75	24.5	2	4	270	0.00	29.887 
09:40	31.8	31.8	31.8	74	24.5	1	4	270	0.00	29.887 
09:45	32.1	32.1	32.1	72	24.1	2	5	270	0.00	29.895 
09:50	32.4	32.4	32.4	71	24.1	1	3	292	0.00	29.895 
09:55	32.4	32.4	32.4	69	23.4	3	6	270	0.00	29.895 
10:00	32.2	32.2	32.2	66	22.1	3	6	292	0.00	29.903 
10:05	32.1	32.1	32.1	66	22.0	3	7	338	0.00	29.903 
10:10	32.2	32.2	32.2	66	22.1	3	10	270	0.00	29.903 
10:15	32.2	32.2	32.2	65	21.8	2	6	315	0.00	29.914 
10:20	32.2	32.2	32.2	63	21.0	2	9	270	0.00	29.914 
10:25	32.2	28.3	32.2	62	20.7	4	11	270	0.00	29.914 
10:30	32.1	28.2	32.1	62	20.6	4	9	315	0.00	29.922 
10:35	32.2	32.2	32.2	62	20.7	3	9	270	0.00	29.922 
10:40	32.4	28.5	32.4	60	20.1	4	7	292	0.00	29.922 
10:45	32.9	32.9	32.9	59	20.2	3	7	292	0.00	29.931 
10:50	32.8	32.8	32.8	58	19.7	3	9	270	0.00	29.931 
10:55	32.5	28.7	32.5	58	19.4	4	9	270	0.00	29.931 
11:00	32.7	27.9	32.7	57	19.2	5	10	292	0.00	29.936 
11:05	32.5	32.5	32.5	57	19.0	3	8	292	0.00	29.936 
11:10	32.2	32.2	32.2	57	18.7	3	9	292	0.00	29.936 
11:15	31.9	31.9	31.9	58	18.8	3	10	315	0.00	29.944 
11:20	31.8	31.8	31.8	60	19.5	3	7	315	0.00	29.944 
11:25	31.9	28.0	31.9	59	19.2	4	9	270	0.00	29.944 
11:30	32.1	32.1	32.1	57	18.6	3	11	292	0.00	29.946 
11:35	31.8	27.8	31.8	57	18.3	4	10	315	0.00	29.946 
11:40	31.8	27.8	31.8	58	18.7	4	10	270	0.00	29.946 
11:45	31.6	27.6	31.6	57	18.1	4	10	315	0.00	29.947 
11:50	31.6	26.6	31.6	55	17.3	5	15	315	0.00	29.947 
11:55	31.6	31.6	31.6	55	17.3	3	12	315	0.00	29.947 
12:00	31.5	31.5	31.5	57	18.0	3	9	315	0.00	29.948 
12:05	31.3	31.3	31.3	57	17.9	2	7	315	0.00	29.948 
12:10	31.3	27.3	31.3	56	17.4	4	12	270	0.00	29.948 
12:15	31.2	27.2	31.2	56	17.4	4	10	270	0.00	29.954 
12:20	31.2	27.2	31.2	56	17.4	4	12	270	0.00	29.954 
12:25	31.2	27.2	31.2	55	16.9	4	12	315	0.00	29.954 
12:30	31.2	31.2	31.2	55	16.9	3	7	292	0.00	29.961 
12:35	31.0	31.0	31.0	55	16.8	3	11	292	0.00	29.961 
12:40	30.9	30.9	30.9	56	17.1	3	11	315	0.00	29.961 
12:45	30.9	30.9	30.9	58	17.9	2	6	315	0.00	29.955 
12:50	30.7	30.7	30.7	58	17.7	3	7	338	0.00	29.955 
12:55	30.7	30.7	30.7	59	18.1	2	5	315	0.00	29.955 
13:00	30.7	30.7	30.7	61	18.9	3	10	270	0.00	29.960 
13:05	30.6	26.5	30.6	61	18.8	4	9	270	0.00	29.960 
13:10	30.6	30.6	30.6	61	18.8	2	5	315	0.00	29.960 
13:15	30.7	30.7	30.7	61	18.9	3	7	270	0.00	29.965 
13:20	30.9	30.9	30.9	61	19.1	3	7	315	0.00	29.965 
13:25	30.7	30.7	30.7	60	18.5	3	9	315	0.00	29.965 
13:30	30.7	30.7	30.7	59	18.1	3	9	270	0.00	29.969 
13:35	30.7	30.7	30.7	58	17.7	3	6	315	0.00	29.969 
13:40	30.7	30.7	30.7	59	18.1	3	7	270	0.00	29.969 
13:45	30.4	30.4	30.4	60	18.2	3	7	270	0.00	29.973 
13:50	30.1	25.9	30.1	60	17.9	4	12	292	0.00	29.973 
13:55	30.1	30.1	30.1	61	18.3	3	15	270	0.00	29.973 
14:00	30.1	30.1	30.1	60	17.9	3	11	270	0.00	29.983 
14:05	30.3	30.3	30.3	60	18.1	2	5	292	0.00	29.983 
14:10	30.3	26.1	30.3	57	16.9	4	10	292	0.00	29.983 
14:15	30.3	30.3	30.3	59	17.7	3	6	292	0.00	29.992 
14:20	30.4	30.4	30.4	58	17.4	3	7	315	0.00	29.992 
14:25	30.6	30.6	30.6	59	18.0	3	7	270	0.00	29.992 
14:30	30.3	26.1	30.3	57	16.9	4	9	270	0.00	29.999 
14:35	30.1	25.9	30.1	58	17.1	4	10	292	0.00	29.999 
14:40	30.0	24.7	30.0	58	17.0	5	10	270	0.00	29.999 
14:45	30.0	25.8	30.0	58	17.0	4	15	270	0.00	30.012 
14:50	29.8	29.8	29.8	59	17.2	3	7	292	0.00	30.012 
14:55	29.8	29.8	29.8	59	17.2	3	7	270	0.00	30.012 
15:00	29.8	29.8	29.8	60	17.6	3	8	270	0.00	30.018 
15:05	30.0	30.0	30.0	60	17.8	3	9	292	0.00	30.018 
15:10	30.3	30.3	30.3	58	17.3	3	10	292	0.00	30.018 
15:15	30.3	30.3	30.3	58	17.3	3	11	270	0.00	30.026 
15:20	30.1	25.9	30.1	58	17.1	4	11	270	0.00	30.026 
15:25	30.1	25.9	30.1	59	17.5	4	15	292	0.00	30.026 
15:30	30.3	30.3	30.3	61	18.5	2	9	315	0.00	30.032 
15:35	30.6	30.6	30.6	61	18.8	2	6	270	0.00	30.032 
15:40	30.7	30.7	30.7	59	18.1	3	7	315	0.00	30.032 
15:45	31.0	26.9	31.0	59	18.4	4	9	270	0.00	30.033 
15:50	31.5	31.5	31.5	58	18.4	3	7	292	0.00	30.033 
15:55	31.2	31.2	31.2	58	18.2	3	11	292	0.00	30.033 
16:00	31.2	31.2	31.2	61	19.3	3	9	315	0.00	30.044 
16:05	31.8	31.8	31.8	61	19.9	2	5	270	0.00	30.044 
16:10	31.8	31.8	31.8	59	19.1	3	6	270	0.00	30.044 
16:15	31.5	31.5	31.5	58	18.4	3	6	270	0.00	30.047 
16:20	30.9	26.8	30.9	58	17.9	4	10	270	0.00	30.047 
16:25	30.6	30.6	30.6	58	17.6	3	6	270	0.00	30.047 
16:30	30.3	30.3	30.3	58	17.3	3	7	270	0.00	30.057 
16:35	30.1	30.1	30.1	58	17.1	3	10	270	0.00	30.057 
16:40	30.0	30.0	30.0	59	17.4	2	6	270	0.00	30.057 
16:45	30.0	30.0	30.0	58	17.0	3	7	315	0.00	30.063 
16:50	30.1	30.1	30.1	58	17.1	2	6	270	0.00	30.063 
16:55	30.0	30.0	30.0	58	17.0	3	9	270	0.00	30.063 
17:00	30.1	30.1	30.1	56	16.3	3	7	292	0.00	30.069 
17:05	30.3	30.3	30.3	55	16.1	3	7	315	0.00	30.069 
17:10	30.3	30.3	30.3	55	16.1	3	10	292	0.00	30.069 
17:15	30.3	26.1	30.3	55	16.1	4	11	270	0.00	30.081 
17:20	30.3	30.3	30.3	54	15.7	3	9	315	0.00	30.081 
17:25	30.3	30.3	30.3	53	15.2	3	7	270	0.00	30.081 
17:30	30.3	26.1	30.3	53	15.2	4	9	270	0.00	30.086 
17:35	30.1	30.1	30.1	53	15.1	3	6	270	0.00	30.086 
17:40	30.3	30.3	30.3	53	15.2	3	10	270	0.00	30.086 
17:45	30.3	30.3	30.3	54	15.7	3	7	270	0.00	30.095 
17:50	30.4	26.2	30.4	52	14.9	4	10	270	0.00	30.095 
17:55	30.4	30.4	30.4	52	14.9	3	6	270	0.00	30.095 
18:00	30.4	30.4	30.4	51	14.5	3	9	270	0.00	30.100 
18:05	30.4	25.2	30.4	50	14.0	5	9	270	0.00	30.100 
18:10	30.4	30.4	30.4	51	14.5	3	7	270	0.00	30.100 
18:15	30.3	30.3	30.3	52	14.8	3	9	270	0.00	30.104 
18:20	30.1	30.1	30.1	52	14.6	2	5	270	0.00	30.104 
18:25	30.1	30.1	30.1	53	15.1	3	6	270	0.00	30.104 
18:30	30.0	30.0	30.0	53	15.0	2	7	270	0.00	30.103 
18:35	30.0	30.0	30.0	53	15.0	3	7	270	0.00	30.103 
18:40	30.0	30.0	30.0	54	15.4	2	5	270	0.00	30.103 
18:45	30.0	30.0	30.0	53	15.0	3	9	270	0.00	30.108 
18:50	30.1	30.1	30.1	53	15.1	3	6	270	0.00	30.108 
18:55	30.3	30.3	30.3	52	14.8	3	11	270	0.00	30.108 
19:00	30.1	30.1	30.1	52	14.6	3	12	270	0.00	30.109 
19:05	30.3	30.3	30.3	52	14.8	3	8	270	0.00	30.109 
19:10	30.3	30.3	30.3	52	14.8	2	5	270	0.00	30.109 
19:15	30.3	30.3	30.3	51	14.4	3	6	270	0.00	30.113 
19:20	30.4	26.2	30.4	51	14.5	4	7	270	0.00	30.113 
19:25	30.4	30.4	30.4	51	14.5	3	7	270	0.00	30.113 
19:30	30.4	30.4	30.4	52	14.9	3	6	270	0.00	30.116 
19:35	30.4	30.4	30.4	52	14.9	3	11	270	0.00	30.116 
19:40	30.4	30.4	30.4	53	15.3	3	7	270	0.00	30.116 
19:45	30.4	30.4	30.4	53	15.3	3	7	270	0.00	30.122 
19:50	30.4	30.4	30.4	54	15.8	2	6	270	0.00	30.122 
19:55	30.3	26.1	30.3	55	16.1	4	11	270	0.00	30.122 
20:00	30.3	30.3	30.3	56	16.5	2	6	270	0.00	30.120 
20:05	30.3	30.3	30.3	56	16.5	1	3	292	0.00	30.120 
20:10	30.3	30.3	30.3	57	16.9	2	6	315	0.00	30.120 
20:15	30.1	30.1	30.1	58	17.1	2	6	270	0.00	30.125 
20:20	30.0	30.0	30.0	59	17.4	1	5	315	0.00	30.125 
20:25	30.0	30.0	30.0	60	17.8	2	7	270	0.00	30.125 
20:30	29.8	29.8	29.8	61	18.0	3	7	270	0.00	30.127 
20:35	29.7	29.7	29.7	62	18.3	3	6	270	0.00	30.127 
20:40	29.5	29.5	29.5	62	18.1	2	5	338	0.00	30.127 
20:45	29.4	29.4	29.4	64	18.8	1	4	270	0.00	30.129 
20:50	29.1	29.1	29.1	65	18.8	2	6	315	0.00	30.129 
20:55	29.0	29.0	29.0	66	19.1	2	6	315	0.00	30.129 
21:00	29.0	29.0	29.0	66	19.1	2	5	270	0.00	30.134 
21:05	29.0	29.0	29.0	66	19.1	2	5	270	0.00	30.134 
21:10	29.1	29.1	29.1	67	19.5	1	4	292	0.00	30.134 
21:15	28.8	28.8	28.8	72	20.9	1	4	292	0.00	30.136 
21:20	28.4	28.4	28.4	75	21.5	1	2	315	0.00	30.136 
21:25	28.2	28.2	28.2	75	21.3	1	3	315	0.00	30.136 
21:30	28.2	28.2	28.2	74	21.0	1	4	315	0.00	30.140 
21:35	28.2	28.2	28.2	74	21.0	1	4	315	0.00	30.140 
21:40	28.2	28.2	28.2	74	21.0	2	4	338	0.00	30.140 
21:45	28.2	28.2	28.2	73	20.7	2	5	338	0.00	30.143 
21:50	28.2	28.2	28.2	73	20.7	2	7	292	0.00	30.143 
21:55	28.2	28.2	28.2	72	20.4	2	9	338	0.00	30.143 
22:00	28.2	28.2	28.2	72	20.4	1	3	315	0.00	30.148 
22:05	28.2	28.2	28.2	72	20.4	2	6	270	0.00	30.148 
22:10	28.2	28.2	28.2	71	20.0	1	4	315	0.00	30.148 
22:15	28.2	28.2	28.2	69	19.4	1	4	338	0.00	30.155 
22:20	28.2	28.2	28.2	68	19.0	1	6	292	0.00	30.155 
22:25	28.2	28.2	28.2	67	18.7	2	5	292	0.00	30.155 
22:30	28.2	28.2	28.2	66	18.3	2	7	292	0.00	30.155 
22:35	28.4	28.4	28.4	65	18.2	2	7	292	0.00	30.155 
22:40	28.4	28.4	28.4	63	17.4	3	7	292	0.00	30.155 
22:45	28.5	28.5	28.5	62	17.2	3	6	315	0.00	30.159 
22:50	28.4	28.4	28.4	62	17.1	2	4	292	0.00	30.159 
22:55	28.4	28.4	28.4	62	17.1	1	3	315	0.00	30.159 
23:00	28.4	28.4	28.4	62	17.1	1	6	292	0.00	30.165 
23:05	28.4	28.4	28.4	60	16.3	2	4	0	0.00	30.165 
23:10	28.5	28.5	28.5	59	16.0	2	5	315	0.00	30.165 
23:15	28.5	28.5	28.5	58	15.6	1	4	315	0.00	30.172 
23:20	28.5	28.5	28.5	58	15.6	1	5	315	0.00	30.172 
23:25	28.5	28.5	28.5	58	15.6	2	6	270	0.00	30.172 
23:30	28.4	28.4	28.4	58	15.5	0	2	315	0.00	30.174 
23:35	28.4	28.4	28.4	58	15.5	1	3	270	0.00	30.174 
23:40	28.4	28.4	28.4	58	15.5	0	3	338	0.00	30.174 
23:45	28.2	28.2	28.2	58	15.3	1	3	315	0.00	30.172 
23:50	28.2	28.2	28.2	57	14.9	1	3	338	0.00	30.172 
23:55	28.2	28.2	28.2	57	14.9	1	4	315	0.00	30.172 

CoCoRaHS
IN-AL-39
A2 Web Hosting
Creative Commons License
GoDaddy
Look for:

loaded 2017-10-17 00:32:11 • last modified 2010-11-18 10:43:29
Privacy PolicyDisclaimer
• wx.awcolley.com is powered by PmWiki v.2002016 •
• all content (unless otherwise noted) © 2017 A W Colley